Time;durP1;ratioP1;P1;durP2;ratioP2;P2;SDS_P1;SDS_P2;PMS_P1;PMS_P2;Temp;Humidity;BMP_temperature;BMP_pressure;BME280_temperature;BME280_humidity;BME280_pressure;Samples;Min_cycle;Max_cycle;Signal;HPM_P1;HPM_P2
2022/11/03 00:01:55;;;;;;;11.15;4.50;;;;;;;2.62;100.00;95973.75;5016254;28;20045;-78
2022/11/03 00:04:21;;;;;;;9.23;4.57;;;;;;;2.59;100.00;95974.97;5016516;28;20041;-78
2022/11/03 00:06:52;;;;;;;8.35;4.60;;;;;;;2.55;100.00;95977.16;5018809;28;20526;-77
2022/11/03 00:09:19;;;;;;;11.63;4.35;;;;;;;2.53;100.00;95971.38;5019252;28;20638;-77
2022/11/03 00:11:47;;;;;;;10.23;4.00;;;;;;;2.59;100.00;95967.16;5010943;28;20594;-77
2022/11/03 00:14:15;;;;;;;9.10;3.75;;;;;;;2.54;100.00;95962.59;5012617;28;20042;-77
2022/11/03 00:16:42;;;;;;;7.55;4.25;;;;;;;2.53;100.00;95965.38;5000904;28;20037;-77
2022/11/03 00:19:09;;;;;;;11.95;4.18;;;;;;;2.50;100.00;95951.03;5019004;28;20069;-77
2022/11/03 00:21:35;;;;;;;9.52;4.18;;;;;;;2.45;100.00;95943.03;5008263;28;20038;-77
2022/11/03 00:24:01;;;;;;;9.07;4.00;;;;;;;2.47;100.00;95946.25;4998828;28;20065;-77
2022/11/03 00:26:29;;;;;;;8.32;3.55;;;;;;;2.49;100.00;95939.03;5009517;28;20048;-77
2022/11/03 00:28:56;;;;;;;8.18;3.80;;;;;;;2.53;100.00;95924.63;5009603;28;20046;-76
2022/11/03 00:31:25;;;;;;;8.38;3.78;;;;;;;2.52;100.00;95928.22;5009267;28;20116;-76
2022/11/03 00:33:51;;;;;;;9.57;4.20;;;;;;;2.49;100.00;95923.44;4992183;28;20495;-76
2022/11/03 00:36:19;;;;;;;9.07;4.00;;;;;;;2.56;100.00;95924.19;5010215;28;20042;-76
2022/11/03 00:38:45;;;;;;;9.40;4.43;;;;;;;2.57;100.00;95925.81;5004760;28;20066;-77
2022/11/03 00:41:12;;;;;;;8.05;3.90;;;;;;;2.60;100.00;95922.78;5002208;28;20042;-77
2022/11/03 00:43:38;;;;;;;8.93;4.05;;;;;;;2.55;100.00;95916.63;5017958;28;20580;-77
2022/11/03 00:46:05;;;;;;;9.55;4.35;;;;;;;2.54;100.00;95915.84;4993047;28;20051;-77
2022/11/03 00:48:32;;;;;;;10.60;4.10;;;;;;;2.52;100.00;95915.22;5014706;28;20034;-77
2022/11/03 00:51:22;;;;;;;8.70;3.70;;;;;;;2.44;100.00;95910.25;5014254;28;20038;-77
2022/11/03 00:53:54;;;;;;;11.27;4.18;;;;;;;2.42;100.00;95907.09;5009874;28;20042;-77
2022/11/03 00:56:24;;;;;;;12.63;4.13;;;;;;;2.45;100.00;95904.06;5009817;28;20045;-77
2022/11/03 00:58:52;;;;;;;11.10;4.70;;;;;;;2.50;100.00;95903.44;5013840;28;20050;-77
2022/11/03 01:01:26;;;;;;;7.75;3.53;;;;;;;2.56;100.00;95893.03;5015309;28;20037;-77
2022/11/03 01:06:52;;;;;;;10.35;4.05;;;;;;;2.54;100.00;95887.25;5013673;28;20049;-77
2022/11/03 01:09:22;;;;;;;8.10;4.03;;;;;;;2.55;100.00;95886.22;5002150;28;20096;-77
2022/11/03 01:12:05;;;;;;;9.55;4.07;;;;;;;2.52;100.00;95886.66;4994378;28;20528;-77
2022/11/03 01:14:36;;;;;;;7.75;3.90;;;;;;;2.51;100.00;95887.66;5018747;28;20045;-77
2022/11/03 01:17:14;;;;;;;10.90;4.53;;;;;;;2.46;100.00;95877.09;5019472;28;20065;-77
2022/11/03 01:19:40;;;;;;;11.43;4.50;;;;;;;2.46;100.00;95882.28;5014597;28;20050;-77
2022/11/03 01:22:05;;;;;;;13.55;3.65;;;;;;;2.50;100.00;95872.25;4998011;28;20125;-77
2022/11/03 01:24:31;;;;;;;12.02;4.32;;;;;;;2.48;100.00;95869.88;5014822;28;20124;-77
2022/11/03 01:26:57;;;;;;;12.98;4.82;;;;;;;2.55;100.00;95875.84;5012521;28;20542;-77
2022/11/03 01:29:22;;;;;;;20.88;6.78;;;;;;;2.51;100.00;95869.47;5004054;28;20038;-77
2022/11/03 01:31:48;;;;;;;12.48;5.13;;;;;;;2.55;100.00;95868.03;4998418;28;20061;-77
2022/11/03 01:34:15;;;;;;;12.23;4.82;;;;;;;2.58;100.00;95875.41;5014767;28;20046;-77
2022/11/03 01:36:41;;;;;;;12.55;5.18;;;;;;;2.61;100.00;95869.00;5016701;28;20045;-77
2022/11/03 01:39:12;;;;;;;17.27;6.05;;;;;;;2.62;100.00;95877.63;4996622;28;20042;-76
2022/11/03 01:41:39;;;;;;;13.77;5.13;;;;;;;2.67;100.00;95872.56;5013176;28;20125;-77
2022/11/03 01:44:07;;;;;;;15.95;5.03;;;;;;;2.56;100.00;95874.84;5013374;28;20038;-76
2022/11/03 01:46:41;;;;;;;14.73;5.03;;;;;;;2.43;100.00;95872.31;5012687;28;20065;-76
2022/11/03 01:49:21;;;;;;;14.32;4.57;;;;;;;2.44;100.00;95868.69;5009578;28;20041;-76
2022/11/03 01:51:50;;;;;;;14.25;5.53;;;;;;;2.39;100.00;95861.53;5022103;28;20125;-76
2022/11/03 01:54:20;;;;;;;16.42;5.63;;;;;;;2.36;100.00;95861.19;5032518;28;20091;-77
2022/11/03 01:56:46;;;;;;;13.98;4.85;;;;;;;2.31;100.00;95853.19;5012289;28;20096;-76
2022/11/03 01:59:14;;;;;;;13.25;4.97;;;;;;;2.28;100.00;95843.22;5011992;28;20041;-76
2022/11/03 02:01:41;;;;;;;10.00;4.88;;;;;;;2.31;100.00;95853.19;5011998;28;20096;-76
2022/11/03 02:04:12;;;;;;;10.25;4.25;;;;;;;2.30;100.00;95852.41;5012634;28;20454;-76
2022/11/03 02:06:38;;;;;;;13.13;4.60;;;;;;;2.32;100.00;95849.59;5012394;28;20048;-76
2022/11/03 02:09:06;;;;;;;8.52;4.25;;;;;;;2.35;100.00;95844.00;5011364;28;20666;-76
2022/11/03 02:14:18;;;;;;;9.73;4.40;;;;;;;2.17;100.00;95842.88;5017462;28;20041;-76
2022/11/03 02:16:48;;;;;;;13.68;4.70;;;;;;;2.17;100.00;95837.69;5015066;28;20049;-76
2022/11/03 02:19:33;;;;;;;8.70;4.45;;;;;;;2.12;100.00;95829.72;5003097;28;20045;-76
2022/11/03 02:22:24;;;;;;;14.98;4.63;;;;;;;2.20;100.00;95826.88;5014441;28;20046;-76
2022/11/03 02:24:51;;;;;;;12.25;4.90;;;;;;;2.13;100.00;95814.97;4999086;28;20117;-76
2022/11/03 02:27:18;;;;;;;10.70;5.03;;;;;;;2.11;100.00;95817.75;5006021;28;20510;-76
2022/11/03 02:29:44;;;;;;;12.48;4.38;;;;;;;2.15;100.00;95818.91;5006520;28;20073;-76
2022/11/03 02:32:25;;;;;;;12.15;5.22;;;;;;;2.15;100.00;95821.50;5013239;28;20495;-76
2022/11/03 02:35:01;;;;;;;13.52;5.50;;;;;;;2.01;100.00;95817.41;5012278;28;20554;-76
2022/11/03 02:37:31;;;;;;;9.50;4.47;;;;;;;1.95;100.00;95807.84;5011196;28;20038;-77
2022/11/03 02:40:10;;;;;;;11.77;4.43;;;;;;;2.06;100.00;95820.19;4998140;28;20407;-76
2022/11/03 02:42:39;;;;;;;12.45;5.25;;;;;;;2.05;100.00;95822.00;5010716;28;20392;-76
2022/11/03 02:45:09;;;;;;;12.00;4.55;;;;;;;1.97;100.00;95811.03;5011865;28;20042;-77
2022/11/03 02:47:38;;;;;;;9.50;4.53;;;;;;;1.89;100.00;95809.47;5008063;28;20092;-76
2022/11/03 02:50:07;;;;;;;12.73;4.82;;;;;;;1.86;100.00;95805.47;5002175;28;20404;-76
2022/11/03 02:52:35;;;;;;;11.85;4.47;;;;;;;1.88;100.00;95813.88;5011593;28;20033;-76
2022/11/03 02:55:06;;;;;;;12.80;4.90;;;;;;;1.94;100.00;95806.25;5012319;28;20395;-76
2022/11/03 02:57:38;;;;;;;9.18;4.90;;;;;;;1.89;100.00;95815.44;5010312;28;20041;-76
2022/11/03 03:00:08;;;;;;;11.48;4.85;;;;;;;1.70;100.00;95795.59;5009262;28;20049;-76
2022/11/03 03:02:48;;;;;;;13.27;4.75;;;;;;;1.68;100.00;95795.78;5010792;28;20682;-76
2022/11/03 03:05:17;;;;;;;12.65;5.25;;;;;;;1.62;100.00;95794.00;5025096;28;20056;-77
2022/11/03 03:07:47;;;;;;;11.38;4.38;;;;;;;1.64;100.00;95786.00;5028472;28;20045;-76
2022/11/03 03:10:20;;;;;;;14.30;4.85;;;;;;;1.70;100.00;95780.03;5006320;28;20041;-76
2022/11/03 03:12:49;;;;;;;10.27;4.60;;;;;;;1.70;100.00;95774.81;5003364;28;20045;-77
2022/11/03 03:15:17;;;;;;;10.85;4.80;;;;;;;1.72;100.00;95767.63;5013242;28;20045;-77
2022/11/03 03:18:03;;;;;;;9.93;4.53;;;;;;;1.72;100.00;95762.44;5010121;28;20046;-77
2022/11/03 03:20:36;;;;;;;14.50;5.10;;;;;;;1.66;100.00;95763.25;5029561;28;20046;-76
2022/11/03 03:23:19;;;;;;;13.32;4.75;;;;;;;1.59;100.00;95752.13;5011547;28;20107;-76
2022/11/03 03:25:59;;;;;;;12.32;5.55;;;;;;;1.62;100.00;95746.53;5012883;28;20130;-76
2022/11/03 03:28:31;;;;;;;12.45;4.75;;;;;;;1.62;100.00;95743.91;4999259;28;20849;-76
2022/11/03 03:31:01;;;;;;;10.85;4.32;;;;;;;1.54;100.00;95745.75;5009710;28;20038;-77
2022/11/03 03:33:28;;;;;;;12.40;4.68;;;;;;;1.51;100.00;95743.56;5011143;28;20407;-77
2022/11/03 03:35:56;;;;;;;11.20;4.70;;;;;;;1.62;100.00;95743.91;5011672;28;20042;-76
2022/11/03 03:38:31;;;;;;;10.45;5.05;;;;;;;1.55;100.00;95744.75;5002359;28;20049;-76
2022/11/03 03:40:58;;;;;;;12.32;4.93;;;;;;;1.49;100.00;95745.56;4998134;28;20549;-77
2022/11/03 03:43:27;;;;;;;10.10;5.00;;;;;;;1.52;100.00;95745.19;5011505;28;20479;-76
2022/11/03 03:45:57;;;;;;;12.43;4.60;;;;;;;1.55;100.00;95749.94;5010709;28;20384;-76
2022/11/03 03:48:23;;;;;;;13.10;4.78;;;;;;;1.50;100.00;95762.72;5014148;28;20042;-76
2022/11/03 03:50:49;;;;;;;11.18;4.82;;;;;;;1.48;100.00;95750.97;5012686;28;20710;-76
2022/11/03 03:53:17;;;;;;;14.27;5.30;;;;;;;1.46;100.00;95756.34;4993138;28;20041;-76
2022/11/03 03:55:48;;;;;;;17.10;5.65;;;;;;;1.39;100.00;95750.41;5007290;28;20038;-76
2022/11/03 03:58:14;;;;;;;16.00;5.72;;;;;;;1.35;100.00;95751.81;5010333;28;20057;-76
2022/11/03 04:00:41;;;;;;;13.57;5.82;;;;;;;1.41;100.00;95740.63;5010141;28;20100;-77
2022/11/03 04:03:14;;;;;;;15.43;5.45;;;;;;;1.46;100.00;95747.78;5021488;28;20042;-77
2022/11/03 04:05:40;;;;;;;16.83;6.07;;;;;;;1.36;100.00;95745.63;5015713;28;20049;-75
2022/11/03 04:08:06;;;;;;;12.50;5.35;;;;;;;1.33;100.00;95730.47;5007799;28;20034;-75
2022/11/03 04:10:31;;;;;;;12.38;5.28;;;;;;;1.36;100.00;95727.47;5010352;28;20113;-75
2022/11/03 04:23:48;;;;;;;12.52;6.03;;;;;;;1.43;100.00;95717.88;5001530;28;20053;-77
2022/11/03 04:26:17;;;;;;;21.88;6.93;;;;;;;1.55;100.00;95716.22;5010686;28;20113;-77
2022/11/03 04:28:42;;;;;;;18.95;7.28;;;;;;;1.61;100.00;95718.97;5010340;28;20042;-77
2022/11/03 04:31:10;;;;;;;24.65;7.43;;;;;;;1.68;100.00;95719.75;4995882;28;20835;-77
2022/11/03 04:33:36;;;;;;;18.88;7.70;;;;;;;1.73;100.00;95712.91;4991593;28;20044;-77
2022/11/03 04:36:10;;;;;;;21.48;7.72;;;;;;;1.71;100.00;95708.94;5008807;28;20038;-77
2022/11/03 04:38:36;;;;;;;20.80;8.05;;;;;;;1.79;100.00;95706.09;5009859;28;20042;-77
2022/11/03 04:41:11;;;;;;;27.45;7.70;;;;;;;1.83;100.00;95706.50;5008520;28;20042;-77
2022/11/03 04:43:37;;;;;;;24.73;7.88;;;;;;;1.83;100.00;95702.09;5012222;28;20042;-77
2022/11/03 04:46:04;;;;;;;20.30;8.35;;;;;;;1.87;100.00;95698.09;5026431;28;20041;-77
2022/11/03 04:48:32;;;;;;;23.58;8.40;;;;;;;1.95;100.00;95693.66;5011343;28;20043;-77
2022/11/03 04:51:00;;;;;;;23.52;7.88;;;;;;;1.92;100.00;95694.06;5011870;28;20045;-77
2022/11/03 04:53:30;;;;;;;19.95;8.20;;;;;;;1.93;100.00;95682.69;5007349;28;20037;-77
2022/11/03 04:55:56;;;;;;;30.33;8.45;;;;;;;1.88;100.00;95684.09;5010358;28;20038;-77
2022/11/03 04:58:25;;;;;;;19.30;7.55;;;;;;;1.85;100.00;95678.53;5010634;28;20056;-77
2022/11/03 05:00:52;;;;;;;27.20;8.63;;;;;;;1.76;100.00;95679.78;5008810;28;20038;-77
2022/11/03 05:03:24;;;;;;;23.05;8.80;;;;;;;1.92;100.00;95674.09;5009998;28;20049;-76
2022/11/03 05:05:50;;;;;;;21.75;8.75;;;;;;;2.00;100.00;95667.88;5005769;28;20053;-76
2022/11/03 05:08:20;;;;;;;31.38;10.07;;;;;;;2.04;100.00;95661.22;5008078;28;20042;-76
2022/11/03 05:10:47;;;;;;;29.27;9.32;;;;;;;2.01;100.00;95656.44;5023759;28;20076;-76
2022/11/03 05:13:27;;;;;;;25.42;9.50;;;;;;;1.96;100.00;95648.53;5027485;28;20042;-76
2022/11/03 05:16:02;;;;;;;33.85;9.77;;;;;;;2.00;100.00;95647.88;5015576;28;20104;-76
2022/11/03 05:18:37;;;;;;;36.30;10.32;;;;;;;2.02;100.00;95650.25;4997311;28;20447;-76
2022/11/03 05:21:08;;;;;;;53.70;11.35;;;;;;;2.06;100.00;95643.66;4990235;28;20760;-76
2022/11/03 05:23:49;;;;;;;51.47;13.40;;;;;;;2.20;100.00;95650.31;4996375;28;20046;-76
2022/11/03 05:26:34;;;;;;;60.75;13.00;;;;;;;2.19;100.00;95648.72;5012795;28;20034;-76
2022/11/03 05:29:03;;;;;;;69.88;14.05;;;;;;;2.21;100.00;95646.72;4980780;28;20070;-76
2022/11/03 05:31:31;;;;;;;38.92;12.70;;;;;;;2.25;100.00;95647.88;5022848;28;20072;-76
2022/11/03 05:33:59;;;;;;;43.78;13.20;;;;;;;2.28;100.00;95651.84;5017985;28;20046;-76
2022/11/03 05:36:28;;;;;;;49.45;14.18;;;;;;;2.34;100.00;95634.63;5014004;28;20045;-77
2022/11/03 05:38:58;;;;;;;41.97;13.02;;;;;;;2.37;100.00;95637.59;4988662;28;20578;-77
2022/11/03 05:41:26;;;;;;;64.75;14.32;;;;;;;2.29;100.00;95637.06;4997933;28;20046;-77
2022/11/03 05:44:02;;;;;;;43.92;13.80;;;;;;;2.40;100.00;95628.59;5027022;28;20072;-77
2022/11/03 05:46:33;;;;;;;56.05;14.20;;;;;;;2.41;100.00;95624.97;5007255;28;20385;-76
2022/11/03 05:49:02;;;;;;;45.90;12.60;;;;;;;2.46;100.00;95627.72;5012221;28;20046;-77
2022/11/03 05:51:33;;;;;;;56.13;12.32;;;;;;;2.46;100.00;95627.72;5023503;28;20046;-77
2022/11/03 05:54:03;;;;;;;37.40;11.55;;;;;;;2.48;100.00;95615.28;5032730;28;20746;-77
2022/11/03 05:56:30;;;;;;;88.10;13.63;;;;;;;2.50;100.00;95618.50;5006673;28;20429;-77
2022/11/03 05:58:56;;;;;;;38.83;11.93;;;;;;;2.44;100.00;95611.53;4994978;28;20446;-77
2022/11/03 06:01:31;;;;;;;33.75;11.25;;;;;;;2.40;100.00;95607.81;5012426;28;20092;-75
2022/11/03 06:04:00;;;;;;;63.05;12.27;;;;;;;2.38;100.00;95609.81;5025122;28;20045;-77
2022/11/03 06:06:36;;;;;;;52.00;12.70;;;;;;;2.41;100.00;95604.19;5019148;28;20092;-83
2022/11/03 06:09:11;;;;;;;60.55;12.52;;;;;;;2.38;100.00;95605.41;4994415;28;20078;-74
2022/11/03 06:11:38;;;;;;;44.25;12.00;;;;;;;2.38;100.00;95604.59;4991431;28;20037;-75
2022/11/03 06:14:30;;;;;;;38.22;11.43;;;;;;;2.47;100.00;95608.53;5032196;28;20057;-78
2022/11/03 06:16:57;;;;;;;46.45;12.15;;;;;;;2.42;100.00;95611.75;5002186;28;20058;-78
2022/11/03 06:19:34;;;;;;;50.70;13.10;;;;;;;2.46;100.00;95606.94;5023390;28;20041;-78
2022/11/03 06:22:18;;;;;;;34.13;13.82;;;;;;;2.46;100.00;95606.94;5000931;28;20099;-74
2022/11/03 06:24:44;;;;;;;61.25;13.13;;;;;;;2.41;100.00;95604.19;5016517;28;20038;-75
2022/11/03 06:27:36;;;;;;;42.22;11.93;;;;;;;2.54;100.00;95614.47;4993051;28;20043;-74
2022/11/03 06:30:20;;;;;;;46.50;11.68;;;;;;;2.49;100.00;95611.69;5006570;28;20068;-74
2022/11/03 06:32:46;;;;;;;55.47;12.98;;;;;;;2.47;100.00;95605.94;5016237;28;20449;-75
2022/11/03 06:35:13;;;;;;;85.50;14.23;;;;;;;2.48;100.00;95610.09;5024006;28;20038;-75
2022/11/03 06:37:40;;;;;;;66.50;12.93;;;;;;;2.44;100.00;95608.94;5003356;28;20140;-74
2022/11/03 06:40:09;;;;;;;76.05;18.42;;;;;;;2.50;100.00;95613.28;5006401;28;20052;-76
2022/11/03 06:42:35;;;;;;;63.47;16.38;;;;;;;2.60;100.00;95603.19;4993464;28;20046;-76
2022/11/03 06:45:11;;;;;;;69.38;15.55;;;;;;;2.63;100.00;95601.97;5011483;28;20046;-77
2022/11/03 06:47:39;;;;;;;50.00;14.88;;;;;;;2.66;100.00;95601.53;5015190;28;20044;-78
2022/11/03 06:50:43;;;;;;;45.13;14.52;;;;;;;2.64;100.00;95592.38;5014576;28;20073;-78
2022/11/03 06:53:10;;;;;;;45.28;15.27;;;;;;;2.66;100.00;95587.72;5026247;28;20073;-77
2022/11/03 06:55:37;;;;;;;74.45;14.90;;;;;;;2.69;100.00;95589.91;5021802;28;20116;-78
2022/11/03 06:58:31;;;;;;;80.78;14.23;;;;;;;2.71;100.00;95593.09;4990030;28;20042;-78
2022/11/03 07:00:59;;;;;;;56.15;14.18;;;;;;;2.83;100.00;95599.16;4981748;28;20096;-78
2022/11/03 07:03:29;;;;;;;44.25;13.27;;;;;;;2.92;100.00;95595.22;5020430;28;20112;-79
2022/11/03 07:06:04;;;;;;;36.15;13.60;;;;;;;2.93;100.00;95586.44;5029173;28;20041;-79
2022/11/03 07:08:38;;;;;;;36.08;13.40;;;;;;;3.09;100.00;95584.25;5021718;28;20051;-78
2022/11/03 07:11:17;;;;;;;60.57;15.10;;;;;;;3.09;100.00;95590.22;5004788;28;20041;-77
2022/11/03 07:13:45;;;;;;;42.10;13.18;;;;;;;3.20;100.00;95572.28;5017590;28;20279;-78
2022/11/03 07:16:20;;;;;;;52.05;14.35;;;;;;;3.23;100.00;95580.47;5014528;28;20049;-76
2022/11/03 07:18:46;;;;;;;46.67;13.88;;;;;;;3.35;100.00;95569.28;5011681;28;20046;-77
2022/11/03 07:21:30;;;;;;;60.05;14.70;;;;;;;3.39;100.00;95567.81;5003118;28;20121;-76
2022/11/03 07:23:58;;;;;;;45.80;14.30;;;;;;;3.40;100.00;95569.41;5007938;28;20088;-76
2022/11/03 07:26:25;;;;;;;94.43;15.13;;;;;;;3.28;100.00;95562.38;5010789;28;20034;-74
2022/11/03 07:28:51;;;;;;;83.75;13.88;;;;;;;3.25;100.00;95562.81;4993342;28;20042;-74
2022/11/03 07:31:21;;;;;;;68.38;15.63;;;;;;;3.26;100.00;95572.22;4999233;28;20447;-75
2022/11/03 07:33:46;;;;;;;51.70;15.70;;;;;;;3.46;100.00;95578.91;5020522;28;20411;-74
2022/11/03 07:36:21;;;;;;;46.35;15.15;;;;;;;3.58;100.00;95576.38;5010249;28;20048;-74
2022/11/03 07:38:51;;;;;;;64.35;14.68;;;;;;;3.49;100.00;95560.25;5013573;28;20057;-73
2022/11/03 07:41:23;;;;;;;58.60;13.57;;;;;;;3.52;100.00;95557.25;5018701;28;20045;-76
2022/11/03 07:43:58;;;;;;;61.17;14.32;;;;;;;3.59;100.00;95564.94;4999267;28;20046;-74
2022/11/03 07:46:24;;;;;;;;;;;;;;;3.74;100.00;95564.50;5006807;28;20069;-74
2022/11/03 07:48:55;;;;;;;51.75;14.40;;;;;;;3.84;100.00;95559.53;5013199;28;20387;-74
2022/11/03 07:51:30;;;;;;;51.33;15.77;;;;;;;3.69;100.00;95556.56;5016365;28;20038;-74
2022/11/03 07:54:18;;;;;;;79.95;15.02;;;;;;;3.73;100.00;95557.72;4991919;28;20061;-74
2022/11/03 07:56:51;;;;;;;38.38;15.45;;;;;;;3.92;100.00;95550.59;5016423;28;20149;-74
2022/11/03 07:59:29;;;;;;;42.65;14.20;;;;;;;4.18;100.00;95554.59;5013162;28;20116;-74
2022/11/03 08:01:57;;;;;;;40.70;15.75;;;;;;;4.38;100.00;95545.59;5011712;28;20042;-74
2022/11/03 08:04:33;;;;;;;38.83;16.08;;;;;;;4.38;100.00;95533.34;4995134;28;20044;-74
2022/11/03 08:06:58;;;;;;;36.10;15.77;;;;;;;4.49;100.00;95524.72;5012176;28;20034;-74
2022/11/03 08:09:24;;;;;;;31.05;15.15;;;;;;;4.69;100.00;95529.56;5026188;28;20722;-74
2022/11/03 08:11:50;;;;;;;40.08;15.60;;;;;;;4.80;100.00;95525.34;5024351;28;20080;-73
2022/11/03 08:14:15;;;;;;;41.88;16.30;;;;;;;4.80;100.00;95519.34;5011198;28;20041;-74
2022/11/03 08:16:41;;;;;;;33.83;15.15;;;;;;;4.96;100.00;95513.38;4999413;28;20490;-74
2022/11/03 08:19:07;;;;;;;39.28;15.50;;;;;;;5.15;100.00;95510.56;5009728;28;20096;-73
2022/11/03 08:21:33;;;;;;;31.15;14.43;;;;;;;5.26;100.00;95501.09;5010172;28;20046;-74
2022/11/03 08:23:59;;;;;;;33.97;15.30;;;;;;;5.34;100.00;95498.91;5013850;28;20045;-74
2022/11/03 08:26:24;;;;;;;38.00;14.98;;;;;;;5.35;100.00;95484.03;5000125;28;20042;-74
2022/11/03 08:28:51;;;;;;;31.83;13.85;;;;;;;5.47;100.00;95481.34;5016635;28;20042;-74
2022/11/03 08:31:16;;;;;;;33.33;14.23;;;;;;;5.69;100.00;95479.59;5007334;28;20069;-73
2022/11/03 08:33:42;;;;;;;27.20;12.85;;;;;;;5.80;100.00;95464.06;5016755;28;20038;-73
2022/11/03 08:36:08;;;;;;;38.80;13.25;;;;;;;5.97;100.00;95475.31;5013332;28;20955;-73
2022/11/03 08:38:34;;;;;;;28.48;12.68;;;;;;;6.12;100.00;95455.66;5017551;28;20120;-73
2022/11/03 08:41:00;;;;;;;28.05;11.77;;;;;;;6.26;100.00;95456.88;4998388;28;20038;-73
2022/11/03 08:43:26;;;;;;;28.73;11.73;;;;;;;6.46;100.00;95450.31;5029711;28;20037;-73
2022/11/03 08:45:53;;;;;;;24.98;11.10;;;;;;;6.58;100.00;95453.59;5009177;28;20034;-73
2022/11/03 08:48:20;;;;;;;30.85;11.68;;;;;;;6.70;100.00;95446.38;5008299;28;20070;-73
2022/11/03 08:50:47;;;;;;;32.38;12.38;;;;;;;6.93;100.00;95449.75;5012496;28;20045;-73
2022/11/03 08:53:12;;;;;;;25.40;12.38;;;;;;;7.11;100.00;95444.16;5006898;28;20039;-73
2022/11/03 08:55:38;;;;;;;24.67;11.32;;;;;;;7.15;100.00;95438.44;4999121;28;20054;-73
2022/11/03 08:58:03;;;;;;;22.45;10.40;;;;;;;7.26;100.00;95437.47;5009772;28;20049;-73
2022/11/03 09:00:29;;;;;;;22.25;9.25;;;;;;;7.40;100.00;95427.41;5015015;28;20053;-74
2022/11/03 09:02:55;;;;;;;22.30;9.93;;;;;;;7.50;100.00;95430.06;5019267;28;20096;-73
2022/11/03 09:05:20;;;;;;;25.98;9.55;;;;;;;7.57;100.00;95427.22;5009632;28;20072;-73
2022/11/03 09:07:46;;;;;;;22.20;10.43;;;;;;;7.73;100.00;95434.16;5010367;28;20038;-75
2022/11/03 09:10:12;;;;;;;22.50;8.98;;;;;;;7.86;100.00;95419.00;5013221;28;20038;-74
2022/11/03 09:12:37;;;;;;;14.98;8.43;;;;;;;7.99;100.00;95423.81;5012274;28;20046;-75
2022/11/03 09:15:04;;;;;;;21.58;9.70;;;;;;;8.09;100.00;95418.63;5016573;28;20045;-77
2022/11/03 09:17:31;;;;;;;26.15;9.73;;;;;;;8.29;100.00;95427.63;4993618;28;20088;-73
2022/11/03 09:19:56;;;;;;;21.08;9.35;;;;;;;8.43;100.00;95413.00;4995060;28;20058;-75
2022/11/03 09:22:22;;;;;;;16.88;8.80;;;;;;;8.64;100.00;95407.81;5016043;28;20034;-75
2022/11/03 09:24:48;;;;;;;20.15;8.85;;;;;;;8.79;100.00;95404.44;5014177;28;20070;-75
2022/11/03 09:27:13;;;;;;;28.23;9.45;;;;;;;9.04;100.00;95395.00;5021590;28;20069;-75
2022/11/03 09:29:39;;;;;;;17.73;8.82;;;;;;;9.16;100.00;95393.69;5010281;28;20050;-75
2022/11/03 09:32:05;;;;;;;18.92;9.23;;;;;;;10.08;100.00;95386.72;5013312;28;20064;-75
2022/11/03 09:34:31;;;;;;;20.48;8.45;;;;;;;11.84;100.00;95376.56;4996026;28;20050;-75
2022/11/03 09:36:56;;;;;;;13.80;7.13;;;;;;;12.52;100.00;95368.66;5000904;28;20066;-74
2022/11/03 09:39:22;;;;;;;14.23;6.95;;;;;;;13.41;100.00;95369.75;5005321;28;20173;-75
2022/11/03 09:41:48;;;;;;;11.30;6.25;;;;;;;14.01;100.00;95372.34;5015788;28;20042;-75
2022/11/03 09:44:14;;;;;;;23.80;6.50;;;;;;;13.99;100.00;95366.56;5017300;28;20042;-75
2022/11/03 09:46:40;;;;;;;15.27;6.30;;;;;;;14.53;100.00;95358.09;5008789;28;20052;-75
2022/11/03 09:49:06;;;;;;;13.65;6.43;;;;;;;14.54;100.00;95364.94;5015833;28;20490;-74
2022/11/03 09:51:34;;;;;;;10.88;5.38;;;;;;;14.40;100.00;95358.91;5012849;28;20038;-75
2022/11/03 09:54:03;;;;;;;11.38;5.90;;;;;;;15.15;100.00;95362.03;5012724;28;20068;-74
2022/11/03 09:56:29;;;;;;;11.98;5.60;;;;;;;14.72;100.00;95356.09;5015845;28;20072;-73
2022/11/03 09:58:55;;;;;;;12.55;5.55;;;;;;;13.16;100.00;95361.91;5015367;28;20046;-73
2022/11/03 10:01:21;;;;;;;12.68;4.90;;;;;;;13.90;100.00;95357.75;5019905;28;20406;-73
2022/11/03 10:03:46;;;;;;;12.93;6.15;;;;;;;14.73;100.00;95355.00;5016739;28;20044;-73
2022/11/03 10:06:12;;;;;;;14.95;5.63;;;;;;;14.73;100.00;95344.41;5010556;28;20469;-73
2022/11/03 10:08:40;;;;;;;12.90;5.70;;;;;;;15.17;100.00;95339.44;5011763;28;20041;-73
2022/11/03 10:11:08;;;;;;;12.70;5.35;;;;;;;15.52;100.00;95333.53;5012792;28;20069;-74
2022/11/03 10:13:40;;;;;;;12.85;5.75;;;;;;;15.81;100.00;95334.94;5011433;28;20065;-73
2022/11/03 10:16:07;;;;;;;10.88;5.70;;;;;;;15.48;100.00;95332.59;5005438;28;20044;-73
2022/11/03 10:18:35;;;;;;;10.05;5.28;;;;;;;15.51;100.00;95321.34;5010109;28;20045;-76
2022/11/03 10:21:11;;;;;;;12.98;5.40;;;;;;;15.22;100.00;95314.66;5008924;28;20514;-75
2022/11/03 10:23:37;;;;;;;12.65;5.80;;;;;;;16.95;96.06;95311.97;5012178;28;20053;-75
2022/11/03 10:26:09;;;;;;;14.40;6.25;;;;;;;15.95;95.47;95309.06;4997960;28;20037;-76
2022/11/03 10:28:34;;;;;;;12.55;6.03;;;;;;;14.88;100.00;95300.09;5014817;28;20451;-76
2022/11/03 10:31:06;;;;;;;11.73;5.55;;;;;;;15.15;100.00;95304.47;5004354;28;20037;-76
2022/11/03 10:33:35;;;;;;;12.57;5.72;;;;;;;16.18;100.00;95295.69;5008771;28;20115;-76
2022/11/03 10:36:04;;;;;;;14.73;6.00;;;;;;;16.99;92.05;95296.19;5013290;28;20037;-75
2022/11/03 10:38:31;;;;;;;21.98;6.57;;;;;;;17.92;85.16;95293.88;5016815;28;20105;-76
2022/11/03 10:41:12;;;;;;;13.88;5.85;;;;;;;16.48;87.41;95295.88;5007291;28;20042;-76
2022/11/03 10:43:39;;;;;;;12.38;6.00;;;;;;;16.86;84.78;95289.94;5012661;28;20046;-76
2022/11/03 10:46:14;;;;;;;11.65;6.07;;;;;;;17.97;80.24;95285.69;5011828;28;20073;-76
2022/11/03 10:48:40;;;;;;;11.32;5.30;;;;;;;18.17;75.55;95274.31;4999395;28;20503;-76
2022/11/03 10:51:10;;;;;;;12.63;5.20;;;;;;;17.66;82.78;95281.44;5012511;28;20038;-76
2022/11/03 10:53:36;;;;;;;11.93;4.80;;;;;;;17.17;87.89;95270.34;5011682;28;20049;-78
2022/11/03 10:56:02;;;;;;;9.75;4.50;;;;;;;16.99;85.71;95265.06;5010604;28;20038;-78
2022/11/03 10:58:29;;;;;;;11.77;5.07;;;;;;;17.36;80.97;95262.78;5014845;28;20041;-78
2022/11/03 11:00:54;;;;;;;13.02;5.53;;;;;;;18.68;75.42;95254.81;5000193;28;20038;-78
2022/11/03 11:03:20;;;;;;;15.02;5.18;;;;;;;19.29;71.75;95250.78;5018026;28;20073;-78
2022/11/03 11:05:47;;;;;;;16.95;6.63;;;;;;;18.79;70.56;95261.31;5009688;28;20531;-77
2022/11/03 11:08:21;;;;;;;13.48;5.00;;;;;;;18.20;76.27;95256.13;5009220;28;20049;-78
2022/11/03 11:10:47;;;;;;;11.75;4.85;;;;;;;19.09;72.15;95247.84;5008168;28;20116;-77
2022/11/03 11:13:20;;;;;;;9.48;4.68;;;;;;;20.84;62.64;95242.78;5019599;28;20482;-77
2022/11/03 11:16:06;;;;;;;9.30;4.97;;;;;;;20.90;60.40;95238.78;5005899;28;20058;-76
2022/11/03 11:18:32;;;;;;;12.57;5.10;;;;;;;21.22;58.71;95249.53;5007693;28;20125;-77
2022/11/03 11:21:20;;;;;;;9.02;4.80;;;;;;;19.38;64.89;95241.56;5014781;28;20491;-76
2022/11/03 11:23:51;;;;;;;9.23;4.78;;;;;;;19.12;65.37;95247.22;4974121;28;20107;-77
2022/11/03 11:26:33;;;;;;;10.82;4.57;;;;;;;20.01;63.16;95243.16;5013072;28;20126;-77
2022/11/03 11:29:22;;;;;;;13.50;4.45;;;;;;;18.85;69.82;95248.53;5005392;28;20038;-76
2022/11/03 11:31:47;;;;;;;13.82;4.97;;;;;;;17.98;69.67;95250.00;4999325;28;20515;-76
2022/11/03 11:34:17;;;;;;;10.48;4.80;;;;;;;17.16;75.09;95242.22;5003677;28;20572;-76
2022/11/03 11:37:06;;;;;;;16.00;5.18;;;;;;;18.94;71.88;95246.59;4980756;28;20100;-76
2022/11/03 11:39:39;;;;;;;10.45;4.55;;;;;;;18.03;71.21;95236.50;4978436;28;20084;-78
2022/11/03 11:42:19;;;;;;;17.42;5.32;;;;;;;19.55;65.43;95235.25;5012604;28;20120;-79
2022/11/03 11:44:53;;;;;;;18.75;5.57;;;;;;;20.01;65.01;95231.66;4989305;28;20068;-76
2022/11/03 11:47:25;;;;;;;10.48;5.20;;;;;;;20.62;59.50;95216.59;4987468;28;20054;-75
2022/11/03 11:50:06;;;;;;;10.45;5.30;;;;;;;19.09;64.39;95218.50;5007857;28;20030;-75
2022/11/03 11:52:44;;;;;;;11.63;5.57;;;;;;;17.52;71.55;95222.38;4994656;28;20440;-74
2022/11/03 11:55:37;;;;;;;12.65;5.80;;;;;;;17.41;74.64;95217.41;5009532;28;20042;-76